createdAt,value
2023-03-17T00:01:56.858Z,89.54
2023-03-17T00:04:26.286Z,89.12
2023-03-17T00:06:54.494Z,89.04
2023-03-17T00:09:22.672Z,88.77
2023-03-17T00:11:50.361Z,88.63
2023-03-17T00:14:18.125Z,88.69
2023-03-17T00:16:50.026Z,88.81
2023-03-17T00:19:33.338Z,88.85
2023-03-17T00:22:03.280Z,88.83
2023-03-17T00:24:31.458Z,88.47
2023-03-17T00:26:58.893Z,88.31
2023-03-17T00:29:26.942Z,88.50
2023-03-17T00:31:57.073Z,88.95
2023-03-17T00:34:23.945Z,89.30
2023-03-17T00:36:52.454Z,89.39
2023-03-17T00:39:19.899Z,89.70
2023-03-17T00:41:50.359Z,89.39
2023-03-17T00:44:17.512Z,89.34
2023-03-17T00:46:44.749Z,89.22
2023-03-17T00:49:23.477Z,89.04
2023-03-17T00:51:51.445Z,89.22
2023-03-17T00:54:21.385Z,89.39
2023-03-17T00:56:50.939Z,89.33
2023-03-17T00:59:37.262Z,89.56
2023-03-17T01:02:04.366Z,89.13
2023-03-17T01:04:31.260Z,88.71
2023-03-17T01:06:59.351Z,88.61
2023-03-17T01:09:28.425Z,88.25
2023-03-17T01:11:57.665Z,87.89
2023-03-17T01:14:24.857Z,88.26
2023-03-17T01:16:55.474Z,88.41
2023-03-17T01:19:23.035Z,87.70
2023-03-17T01:21:50.250Z,87.70
2023-03-17T01:24:17.066Z,87.18
2023-03-17T01:26:44.593Z,87.42
2023-03-17T01:29:12.224Z,87.37
2023-03-17T01:31:39.369Z,87.06
2023-03-17T01:34:06.351Z,87.06
2023-03-17T01:36:34.327Z,87.56
2023-03-17T01:39:01.589Z,87.56
2023-03-17T01:41:28.407Z,87.52
2023-03-17T01:43:55.220Z,87.56
2023-03-17T01:46:29.188Z,87.45
2023-03-17T01:49:06.857Z,87.55
2023-03-17T01:51:52.669Z,87.30
2023-03-17T01:55:11.559Z,86.97
2023-03-17T01:57:51.170Z,87.04
2023-03-17T02:00:24.115Z,87.06
2023-03-17T02:02:56.615Z,87.45
2023-03-17T02:05:33.452Z,87.86
2023-03-17T02:08:14.547Z,87.25
2023-03-17T02:10:43.432Z,87.74
2023-03-17T02:13:14.189Z,87.76
2023-03-17T02:15:51.759Z,88.01
2023-03-17T02:18:23.644Z,87.84
2023-03-17T02:20:56.819Z,87.76
2023-03-17T02:23:24.765Z,88.13
2023-03-17T02:25:54.119Z,88.00
2023-03-17T02:28:30.128Z,87.60
2023-03-17T02:30:57.906Z,87.68
2023-03-17T02:33:24.807Z,87.70
2023-03-17T02:35:55.102Z,87.48
2023-03-17T02:38:22.222Z,87.21
2023-03-17T02:40:49.262Z,86.88
2023-03-17T02:43:16.754Z,86.61
2023-03-17T02:45:43.617Z,86.56
2023-03-17T02:48:12.050Z,86.36
2023-03-17T02:50:39.029Z,86.31
2023-03-17T02:53:06.729Z,86.29
2023-03-17T02:55:33.790Z,86.22
2023-03-17T02:58:03.137Z,86.21
2023-03-17T03:00:30.318Z,86.08
2023-03-17T03:02:57.336Z,85.61
2023-03-17T03:05:24.824Z,85.37
2023-03-17T03:07:52.304Z,85.78
2023-03-17T03:10:19.394Z,85.65
2023-03-17T03:12:47.365Z,85.75
2023-03-17T03:15:14.633Z,85.77
2023-03-17T03:17:42.039Z,85.61
2023-03-17T03:20:11.459Z,85.35
2023-03-17T03:22:38.969Z,85.37
2023-03-17T03:25:08.699Z,85.26
2023-03-17T03:27:36.075Z,85.09
2023-03-17T03:30:04.377Z,85.61
2023-03-17T03:32:31.552Z,84.89
2023-03-17T03:34:58.506Z,84.54
2023-03-17T03:37:26.016Z,84.24
2023-03-17T03:39:53.008Z,84.24
2023-03-17T03:42:19.811Z,84.33
2023-03-17T03:44:46.635Z,84.35
2023-03-17T03:47:13.460Z,84.55
2023-03-17T03:49:40.292Z,84.72
2023-03-17T03:52:07.811Z,84.19
2023-03-17T03:54:35.172Z,83.75
2023-03-17T03:57:03.782Z,84.32
2023-03-17T03:59:30.748Z,84.02
2023-03-17T04:01:57.624Z,84.49
2023-03-17T04:04:24.485Z,84.64
2023-03-17T04:06:51.321Z,84.77
2023-03-17T04:09:18.229Z,84.85
2023-03-17T04:11:45.029Z,84.95
2023-03-17T04:14:11.885Z,84.93
2023-03-17T04:16:38.667Z,85.54
2023-03-17T04:19:05.775Z,86.21
2023-03-17T04:21:33.192Z,86.55
2023-03-17T04:24:05.219Z,87.03
2023-03-17T04:26:32.587Z,87.44
2023-03-17T04:28:59.421Z,87.67
2023-03-17T04:31:26.401Z,88.00
2023-03-17T04:33:53.480Z,88.15
2023-03-17T04:36:23.187Z,88.27
2023-03-17T04:38:50.015Z,88.89
2023-03-17T04:41:16.977Z,88.75
2023-03-17T04:43:43.765Z,88.93
2023-03-17T04:46:10.997Z,88.76
2023-03-17T04:48:38.045Z,89.04
2023-03-17T04:51:05.355Z,89.41
2023-03-17T04:53:32.592Z,89.61
2023-03-17T04:55:59.472Z,89.65
2023-03-17T04:58:30.808Z,89.86
2023-03-17T05:00:58.790Z,90.03
2023-03-17T05:03:27.771Z,90.20
2023-03-17T05:05:55.578Z,90.59
2023-03-17T05:08:22.598Z,90.87
2023-03-17T05:10:49.598Z,91.07
2023-03-17T05:13:16.867Z,91.49
2023-03-17T05:15:52.862Z,91.85
2023-03-17T05:18:21.689Z,92.13
2023-03-17T05:20:48.470Z,92.08
2023-03-17T05:23:15.324Z,92.58
2023-03-17T05:25:42.515Z,92.74
2023-03-17T05:28:10.204Z,93.04
2023-03-17T05:30:37.842Z,93.08
2023-03-17T05:33:06.070Z,93.31
2023-03-17T05:35:33.115Z,92.87
2023-03-17T05:38:00.055Z,92.92
2023-03-17T05:40:27.163Z,93.04
2023-03-17T05:42:54.030Z,92.82
2023-03-17T05:45:20.837Z,92.95
2023-03-17T05:47:47.675Z,93.31
2023-03-17T05:50:14.960Z,93.07
2023-03-17T05:52:41.928Z,92.41
2023-03-17T05:55:09.534Z,92.10
2023-03-17T05:57:36.673Z,91.99
2023-03-17T06:00:05.282Z,92.19
2023-03-17T06:02:32.665Z,92.33
2023-03-17T06:04:59.683Z,93.11
2023-03-17T06:07:28.392Z,92.99
2023-03-17T06:09:58.169Z,92.82
2023-03-17T06:12:25.831Z,92.59
2023-03-17T06:14:52.957Z,92.97
2023-03-17T06:17:22.160Z,92.91
2023-03-17T06:19:49.528Z,93.21
2023-03-17T06:22:16.848Z,93.16
2023-03-17T06:24:43.978Z,93.14
2023-03-17T06:27:11.072Z,93.16
2023-03-17T06:29:38.135Z,93.51
2023-03-17T06:32:19.194Z,93.89
2023-03-17T06:34:47.452Z,93.72
2023-03-17T06:37:14.659Z,93.12
2023-03-17T06:39:42.267Z,93.27
2023-03-17T06:42:09.309Z,93.06
2023-03-17T06:44:37.170Z,92.75
2023-03-17T06:47:04.912Z,92.75
2023-03-17T06:49:32.529Z,92.16
2023-03-17T06:51:59.828Z,91.47
2023-03-17T06:54:26.977Z,90.76
2023-03-17T06:56:53.873Z,90.45
2023-03-17T06:59:22.781Z,90.19
2023-03-17T07:01:50.389Z,90.42
2023-03-17T07:04:17.348Z,90.14
2023-03-17T07:06:44.913Z,90.05
2023-03-17T07:09:11.969Z,89.36
2023-03-17T07:11:39.190Z,88.84
2023-03-17T07:14:06.753Z,88.14
2023-03-17T07:16:33.982Z,87.34
2023-03-17T07:19:02.095Z,87.04
2023-03-17T07:21:29.271Z,86.20
2023-03-17T07:23:56.316Z,86.57
2023-03-17T07:26:23.223Z,86.61
2023-03-17T07:28:50.175Z,85.81
2023-03-17T07:31:17.146Z,84.85
2023-03-17T07:33:44.000Z,83.83
2023-03-17T07:36:11.068Z,83.09
2023-03-17T07:38:38.323Z,82.09
2023-03-17T07:41:09.727Z,82.25
2023-03-17T07:43:38.058Z,81.63
2023-03-17T07:46:06.555Z,82.20
2023-03-17T07:48:34.334Z,82.53
2023-03-17T07:51:01.507Z,82.24
2023-03-17T07:53:28.409Z,82.12
2023-03-17T07:55:55.232Z,81.75
2023-03-17T07:58:22.129Z,82.03
2023-03-17T08:00:49.083Z,82.32
2023-03-17T08:03:15.875Z,81.82
2023-03-17T08:05:42.925Z,81.48
2023-03-17T08:08:10.691Z,81.20
2023-03-17T08:10:37.542Z,81.52
2023-03-17T08:13:04.702Z,80.97
2023-03-17T08:15:31.527Z,80.61
2023-03-17T08:17:58.400Z,80.36
2023-03-17T08:20:25.311Z,79.79
2023-03-17T08:22:52.119Z,79.62
2023-03-17T08:25:18.906Z,79.95
2023-03-17T08:27:45.726Z,79.94
2023-03-17T08:30:13.586Z,80.05
2023-03-17T08:32:41.167Z,80.44
2023-03-17T08:35:11.776Z,79.93
2023-03-17T08:37:38.614Z,80.63
2023-03-17T08:40:06.162Z,80.08
2023-03-17T08:42:32.950Z,79.62
2023-03-17T08:44:59.874Z,79.23
2023-03-17T08:47:27.407Z,79.29
2023-03-17T08:49:56.294Z,78.40
2023-03-17T08:52:23.230Z,78.02
2023-03-17T08:54:50.591Z,77.84
2023-03-17T08:57:18.062Z,77.81
2023-03-17T08:59:47.508Z,77.56
2023-03-17T09:02:15.905Z,77.08
2023-03-17T09:04:42.903Z,76.83
2023-03-17T09:07:10.424Z,76.95
2023-03-17T09:09:38.028Z,77.52
2023-03-17T09:12:07.396Z,76.25
2023-03-17T09:14:43.474Z,75.96
2023-03-17T09:17:13.800Z,74.64
2023-03-17T09:19:41.558Z,73.79
2023-03-17T09:22:13.497Z,75.04
2023-03-17T09:24:40.446Z,73.32
2023-03-17T09:27:07.569Z,72.06
2023-03-17T09:29:34.788Z,72.65
2023-03-17T09:32:01.657Z,71.54
2023-03-17T09:34:28.495Z,70.83
2023-03-17T09:36:55.519Z,70.81
2023-03-17T09:39:24.116Z,69.77
2023-03-17T09:42:19.267Z,70.56
2023-03-17T09:45:27.026Z,70.52
2023-03-17T09:48:02.991Z,70.70
2023-03-17T09:50:53.447Z,70.46
2023-03-17T09:53:35.860Z,70.64
2023-03-17T09:56:13.227Z,70.47
2023-03-17T09:58:55.257Z,70.82
2023-03-17T10:01:23.165Z,70.62
2023-03-17T10:03:50.959Z,69.96
2023-03-17T10:06:38.822Z,70.34
2023-03-17T10:09:20.619Z,70.84
2023-03-17T10:11:54.837Z,70.93
2023-03-17T10:14:38.583Z,70.29
2023-03-17T10:17:19.201Z,70.13
2023-03-17T10:19:58.194Z,70.40
2023-03-17T10:22:38.408Z,70.58
2023-03-17T10:25:15.432Z,70.71
2023-03-17T10:27:51.594Z,70.33
2023-03-17T10:30:22.385Z,71.20
2023-03-17T10:32:52.426Z,70.88
2023-03-17T10:35:22.110Z,70.53
2023-03-17T10:37:49.286Z,71.13
2023-03-17T10:40:28.684Z,71.87
2023-03-17T10:43:08.687Z,71.60
2023-03-17T10:45:46.352Z,71.46
2023-03-17T10:48:20.102Z,70.67
2023-03-17T10:50:49.373Z,69.75
2023-03-17T10:53:29.410Z,68.54
2023-03-17T10:56:09.874Z,69.25
2023-03-17T10:58:53.554Z,68.82
2023-03-17T11:01:29.722Z,67.45
2023-03-17T11:03:57.710Z,64.97
2023-03-17T11:06:43.921Z,63.67
2023-03-17T11:09:18.484Z,63.73
2023-03-17T11:11:49.914Z,64.01
2023-03-17T11:14:19.699Z,63.82
2023-03-17T11:16:54.452Z,63.57
2023-03-17T11:19:52.329Z,61.02
2023-03-17T11:22:40.438Z,62.04
2023-03-17T11:25:19.938Z,61.93
2023-03-17T11:27:56.719Z,61.53
2023-03-17T11:30:43.668Z,55.98
2023-03-17T11:33:41.674Z,54.84
2023-03-17T11:36:36.232Z,52.94
2023-03-17T11:39:35.281Z,53.03
2023-03-17T11:42:15.522Z,54.30
2023-03-17T11:45:11.703Z,52.31
2023-03-17T11:48:11.713Z,52.99
2023-03-17T11:50:48.498Z,51.77
2023-03-17T11:53:21.726Z,51.81
2023-03-17T11:55:57.781Z,52.11
2023-03-17T11:58:39.460Z,51.14
2023-03-17T12:01:12.134Z,51.13
2023-03-17T12:04:09.640Z,49.39
2023-03-17T12:06:50.732Z,46.63
2023-03-17T12:09:30.791Z,48.27
2023-03-17T12:12:01.380Z,47.80
2023-03-17T12:14:52.425Z,47.92
2023-03-17T12:17:39.334Z,48.42
2023-03-17T12:20:28.140Z,49.25
2023-03-17T12:23:06.641Z,48.49
2023-03-17T12:25:57.758Z,46.78
2023-03-17T12:28:38.811Z,45.12
2023-03-17T12:31:17.653Z,46.87
2023-03-17T12:34:07.821Z,47.91
2023-03-17T12:36:38.123Z,48.69
2023-03-17T12:39:19.005Z,46.05
2023-03-17T12:42:25.409Z,46.41
2023-03-17T12:45:14.953Z,46.65
2023-03-17T12:48:00.061Z,47.78
2023-03-17T12:50:49.149Z,48.22
2023-03-17T12:53:30.113Z,49.79
2023-03-17T12:56:28.772Z,49.22
2023-03-17T12:59:05.847Z,48.76
2023-03-17T13:02:13.040Z,48.77
2023-03-17T13:05:00.843Z,49.31
2023-03-17T13:07:54.776Z,49.31
2023-03-17T13:10:39.853Z,49.35
2023-03-17T13:13:13.044Z,50.06
2023-03-17T13:15:40.398Z,50.27
2023-03-17T13:18:29.668Z,49.60
2023-03-17T13:20:56.680Z,49.42
2023-03-17T13:23:46.296Z,49.65
2023-03-17T13:26:20.140Z,49.34
2023-03-17T13:28:51.022Z,50.00
2023-03-17T13:31:27.194Z,49.71
2023-03-17T13:34:03.028Z,49.96
2023-03-17T13:36:59.054Z,49.70
2023-03-17T13:39:46.119Z,49.64
2023-03-17T13:43:15.379Z,47.96
2023-03-17T13:45:44.815Z,48.69
2023-03-17T13:48:38.059Z,48.34
2023-03-17T13:51:08.583Z,49.01
2023-03-17T13:53:41.290Z,49.02
2023-03-17T13:56:22.420Z,49.67
2023-03-17T13:59:05.974Z,49.19
2023-03-17T14:01:42.169Z,48.29
2023-03-17T14:04:44.746Z,45.60
2023-03-17T14:07:20.391Z,46.72
2023-03-17T14:09:48.511Z,47.24
2023-03-17T14:12:29.589Z,46.62
2023-03-17T14:15:12.133Z,46.80
2023-03-17T14:17:48.894Z,46.37
2023-03-17T14:20:15.814Z,47.12
2023-03-17T14:22:47.389Z,47.61
2023-03-17T14:25:24.089Z,48.31
2023-03-17T14:27:57.872Z,48.57
2023-03-17T14:30:34.776Z,48.37
2023-03-17T14:33:13.931Z,48.07
2023-03-17T14:35:43.556Z,47.99
2023-03-17T14:38:25.385Z,49.24
2023-03-17T14:41:15.511Z,49.32
2023-03-17T14:43:44.486Z,49.38
2023-03-17T14:46:26.196Z,49.29
2023-03-17T14:49:21.316Z,50.14
2023-03-17T14:51:57.286Z,50.79
2023-03-17T14:54:31.477Z,51.29
2023-03-17T14:57:07.597Z,51.40
2023-03-17T14:59:38.874Z,51.62
2023-03-17T15:02:28.529Z,52.03
2023-03-17T15:05:26.429Z,51.84
2023-03-17T15:07:53.946Z,50.91
2023-03-17T15:10:25.939Z,51.44
2023-03-17T15:13:06.319Z,51.81
2023-03-17T15:15:37.891Z,52.57
2023-03-17T15:18:13.098Z,53.21
2023-03-17T15:20:44.320Z,53.62
2023-03-17T15:23:25.130Z,54.05
2023-03-17T15:25:57.276Z,53.98
2023-03-17T15:28:31.585Z,53.81
2023-03-17T15:31:13.524Z,54.09
2023-03-17T15:33:42.469Z,53.68
2023-03-17T15:36:31.212Z,53.74
2023-03-17T15:38:58.955Z,53.65
2023-03-17T15:41:26.147Z,54.62
2023-03-17T15:43:53.699Z,55.06
2023-03-17T15:46:27.780Z,54.82
2023-03-17T15:48:55.161Z,55.01
2023-03-17T15:51:22.683Z,55.26
2023-03-17T15:53:49.542Z,55.53
2023-03-17T15:56:20.471Z,54.90
2023-03-17T15:58:52.460Z,54.84
2023-03-17T16:01:20.886Z,55.28
2023-03-17T16:03:48.996Z,54.50
2023-03-17T16:06:24.194Z,54.75
2023-03-17T16:08:51.694Z,54.86
2023-03-17T16:11:30.121Z,54.83
2023-03-17T16:13:59.662Z,54.74
2023-03-17T16:16:37.339Z,54.95
2023-03-17T16:19:20.216Z,55.63
2023-03-17T16:21:47.745Z,56.30
2023-03-17T16:24:22.791Z,56.89
2023-03-17T16:26:50.505Z,57.38
2023-03-17T16:29:19.841Z,58.29
2023-03-17T16:31:50.173Z,58.92
2023-03-17T16:34:23.414Z,59.57
2023-03-17T16:36:50.937Z,60.08
2023-03-17T16:39:19.552Z,60.31
2023-03-17T16:41:48.662Z,60.27
2023-03-17T16:44:20.976Z,60.59
2023-03-17T16:46:48.893Z,60.73
2023-03-17T16:49:20.932Z,60.71
2023-03-17T16:51:49.471Z,60.67
2023-03-17T16:54:17.283Z,61.34
2023-03-17T16:56:44.918Z,61.25
2023-03-17T16:59:20.803Z,61.63
2023-03-17T17:01:47.848Z,61.50
2023-03-17T17:04:14.703Z,61.52
2023-03-17T17:06:41.447Z,62.07
2023-03-17T17:09:08.355Z,61.88
2023-03-17T17:11:35.343Z,62.36
2023-03-17T17:14:02.296Z,62.86
2023-03-17T17:16:34.405Z,63.36
2023-03-17T17:19:03.717Z,63.67
2023-03-17T17:21:31.995Z,64.08
2023-03-17T17:23:58.941Z,63.82
2023-03-17T17:26:25.840Z,62.39
2023-03-17T17:28:52.656Z,61.66
2023-03-17T17:31:19.826Z,59.92
2023-03-17T17:33:46.685Z,59.18
2023-03-17T17:36:16.999Z,58.74
2023-03-17T17:38:44.037Z,57.58
2023-03-17T17:41:13.068Z,56.85
2023-03-17T17:43:41.080Z,57.17
2023-03-17T17:46:20.357Z,56.71
2023-03-17T17:48:47.796Z,55.97
2023-03-17T17:51:14.902Z,55.46
2023-03-17T17:53:41.791Z,54.90
2023-03-17T17:56:15.051Z,54.19
2023-03-17T17:58:42.663Z,54.01
2023-03-17T18:01:12.994Z,53.91
2023-03-17T18:03:42.716Z,54.20
2023-03-17T18:06:10.359Z,54.79
2023-03-17T18:08:37.265Z,55.19
2023-03-17T18:11:04.242Z,55.34
2023-03-17T18:13:31.244Z,54.96
2023-03-17T18:15:58.509Z,54.71
2023-03-17T18:18:25.351Z,54.38
2023-03-17T18:20:53.828Z,54.91
2023-03-17T18:23:21.600Z,54.93
2023-03-17T18:25:49.331Z,54.86
2023-03-17T18:28:17.188Z,55.21
2023-03-17T18:30:45.153Z,55.34
2023-03-17T18:33:19.980Z,55.55
2023-03-17T18:35:52.166Z,55.86
2023-03-17T18:38:19.157Z,56.01
2023-03-17T18:40:46.413Z,56.42
2023-03-17T18:43:13.474Z,56.79
2023-03-17T18:45:40.484Z,57.25
2023-03-17T18:48:07.366Z,57.19
2023-03-17T18:50:34.323Z,57.45
2023-03-17T18:53:01.292Z,57.82
2023-03-17T18:55:28.170Z,58.16
2023-03-17T18:57:55.050Z,58.29
2023-03-17T19:00:25.202Z,58.72
2023-03-17T19:02:52.912Z,58.88
2023-03-17T19:05:20.574Z,59.10
2023-03-17T19:07:47.526Z,59.35
2023-03-17T19:10:15.383Z,59.60
2023-03-17T19:12:44.466Z,59.85
2023-03-17T19:15:12.844Z,59.84
2023-03-17T19:17:40.297Z,60.23
2023-03-17T19:20:08.719Z,60.44
2023-03-17T19:22:35.753Z,60.57
2023-03-17T19:25:04.344Z,60.92
2023-03-17T19:27:31.376Z,60.72
2023-03-17T19:29:58.373Z,61.11
2023-03-17T19:32:25.357Z,61.20
2023-03-17T19:34:52.456Z,61.23
2023-03-17T19:37:19.359Z,61.53
2023-03-17T19:39:46.224Z,61.82
2023-03-17T19:42:13.340Z,62.31
2023-03-17T19:44:40.656Z,62.49
2023-03-17T19:47:08.388Z,62.55
2023-03-17T19:49:37.418Z,62.66
2023-03-17T19:52:06.544Z,62.80
2023-03-17T19:54:34.313Z,63.00
2023-03-17T19:57:01.255Z,63.41
2023-03-17T19:59:28.112Z,63.47
2023-03-17T20:01:55.610Z,63.51
2023-03-17T20:04:23.207Z,64.07
2023-03-17T20:06:55.375Z,64.13
2023-03-17T20:09:25.408Z,64.56
2023-03-17T20:11:54.547Z,64.67
2023-03-17T20:14:21.692Z,65.03
2023-03-17T20:16:49.298Z,65.31
2023-03-17T20:19:16.496Z,65.62
2023-03-17T20:21:43.862Z,65.69
2023-03-17T20:24:12.940Z,65.56
2023-03-17T20:26:40.930Z,65.84
2023-03-17T20:29:08.638Z,65.96
2023-03-17T20:31:37.505Z,66.06
2023-03-17T20:34:05.055Z,66.28
2023-03-17T20:36:31.978Z,66.80
2023-03-17T20:38:59.039Z,66.80
2023-03-17T20:41:25.910Z,67.38
2023-03-17T20:43:53.123Z,67.32
2023-03-17T20:46:24.185Z,67.40
2023-03-17T20:48:58.360Z,67.50
2023-03-17T20:51:27.014Z,67.45
2023-03-17T20:53:55.012Z,67.64
2023-03-17T20:56:24.178Z,67.92
2023-03-17T20:58:53.243Z,67.99
2023-03-17T21:01:21.718Z,68.42
2023-03-17T21:03:50.300Z,68.55
2023-03-17T21:06:18.329Z,68.81
2023-03-17T21:08:46.215Z,68.85
2023-03-17T21:11:19.692Z,69.07
2023-03-17T21:13:47.135Z,69.53
2023-03-17T21:16:27.741Z,69.89
2023-03-17T21:18:54.775Z,70.24
2023-03-17T21:21:22.826Z,70.73
2023-03-17T21:23:49.785Z,71.31
2023-03-17T21:26:17.351Z,71.78
2023-03-17T21:28:44.544Z,72.33
2023-03-17T21:31:13.344Z,72.72
2023-03-17T21:33:40.354Z,73.23
2023-03-17T21:36:07.788Z,74.09
2023-03-17T21:38:34.983Z,74.25
2023-03-17T21:41:33.358Z,75.04
2023-03-17T21:44:02.240Z,75.75
2023-03-17T21:46:29.776Z,76.12
2023-03-17T21:48:56.970Z,76.66
2023-03-17T21:51:25.148Z,77.22
2023-03-17T21:53:53.045Z,77.45
2023-03-17T21:56:20.804Z,78.20
2023-03-17T21:58:49.005Z,78.45
2023-03-17T22:01:18.626Z,78.72
2023-03-17T22:03:45.465Z,79.38
2023-03-17T22:06:13.924Z,79.44
2023-03-17T22:08:41.173Z,79.95
2023-03-17T22:11:13.456Z,80.44
2023-03-17T22:13:41.421Z,81.03
2023-03-17T22:16:10.502Z,81.58
2023-03-17T22:18:38.213Z,81.56
2023-03-17T22:21:08.190Z,82.29
2023-03-17T22:23:41.108Z,82.56
2023-03-17T22:26:12.565Z,83.27
2023-03-17T22:28:40.753Z,83.65
2023-03-17T22:31:23.818Z,84.18
2023-03-17T22:33:55.356Z,84.75
2023-03-17T22:36:24.465Z,85.16
2023-03-17T22:38:51.637Z,86.33
2023-03-17T22:41:24.420Z,87.05
2023-03-17T22:43:51.974Z,87.30
2023-03-17T22:46:20.803Z,87.87
2023-03-17T22:48:48.704Z,88.57
2023-03-17T22:51:20.979Z,88.94
2023-03-17T22:53:49.280Z,89.28
2023-03-17T22:56:18.242Z,89.68
2023-03-17T22:58:46.824Z,90.23
2023-03-17T23:01:16.751Z,90.57
2023-03-17T23:03:45.204Z,91.13
2023-03-17T23:06:13.248Z,91.37
2023-03-17T23:08:42.764Z,91.70
2023-03-17T23:11:21.183Z,92.38
2023-03-17T23:13:49.265Z,93.00
2023-03-17T23:16:17.151Z,93.22
2023-03-17T23:18:46.811Z,93.75
2023-03-17T23:21:36.732Z,93.78
2023-03-17T23:24:05.788Z,94.26
2023-03-17T23:26:35.074Z,94.58
2023-03-17T23:29:03.380Z,94.67
2023-03-17T23:31:30.306Z,95.48
2023-03-17T23:33:57.157Z,95.75
2023-03-17T23:36:24.309Z,95.61
2023-03-17T23:38:52.265Z,95.95
2023-03-17T23:41:19.399Z,95.96
2023-03-17T23:43:46.821Z,96.72
2023-03-17T23:46:14.753Z,97.22
2023-03-17T23:48:42.953Z,97.23
2023-03-17T23:51:12.684Z,98.06
2023-03-17T23:53:39.858Z,98.09
2023-03-17T23:56:08.435Z,98.83
2023-03-17T23:58:36.197Z,98.70
